PWSweather.com
Personal Weather Stations
Station Observations
MADWEATHER
MadeiraPT

MadeiraPT

Lat: 32.735, Lon: -17.194

Elevation: 1063

Station Type: Davis VantagePro2

Latest ConditionsUpdated 2:20:01 PM GMT Monday, Sep 24, 2018
Currently Today's Max Today's Min Today's Average
Temperature 74.7°F23.7°C 75.4°F24.1°C 67.4°F19.7°C 71.0°F21.7°C
Dew Point 66.3°F19.1°C 66.7°F19.3°C 52.9°F11.6°C 61.2°F16.2°C
Winds 6.3 mph SW10.1 kmh SW 7.3 mph -11.7 kmh - - 2.9 mph 4.7 kmh
Wind Gusts 9.0 mph14.5 kmh 12.0 mph19.3 kmh - -
Humidity 75% 84% 52% 72%
Pressure 30.07 in1018.3 mb 30.13 in1020.3 mb 30.06 in1017.9 mb -
Hour Temp Dew Point Humidity Winds Wind Gusts Pressure Precip Precip Rate Daily Precip Total
02:20 PM 74.7°F23.7°C 66.3°F19.1°C 75% 6.3 mph SW10.1 kmh SW 9.0 mph14.5 kmh 30.07 in1018.3 mb - 0.00 in0.0 mm 0.00 in0.0 mm
02:10 PM 75.3°F24.1°C 66.0°F18.9°C 73% 4.7 mph SW7.6 kmh SW 7.0 mph11.3 kmh 30.07 in1018.3 mb - 0.00 in0.0 mm 0.00 in0.0 mm
02:00 PM 75.4°F24.1°C 66.5°F19.2°C 74% 3.9 mph SW6.3 kmh SW 7.0 mph11.3 kmh 30.08 in1018.6 mb - 0.00 in0.0 mm 0.00 in0.0 mm
01:50 PM 74.8°F23.8°C 66.7°F19.3°C 76% 4.4 mph SW7.1 kmh SW 7.0 mph11.3 kmh 30.09 in1019.0 mb - 0.00 in0.0 mm 0.00 in0.0 mm
01:40 PM 73.0°F22.8°C 65.7°F18.7°C 78% 7.0 mph SW11.3 kmh SW 8.0 mph12.9 kmh 30.09 in1019.0 mb - 0.00 in0.0 mm 0.00 in0.0 mm
01:30 PM 73.3°F22.9°C 65.3°F18.5°C 76% 4.2 mph SW6.8 kmh SW 12.0 mph19.3 kmh 30.09 in1019.0 mb - 0.00 in0.0 mm 0.00 in0.0 mm
01:20 PM 73.7°F23.2°C 65.6°F18.7°C 76% 3.9 mph SW6.3 kmh SW 7.0 mph11.3 kmh 30.09 in1019.0 mb - 0.00 in0.0 mm 0.00 in0.0 mm
01:10 PM 73.8°F23.2°C 66.5°F19.2°C 78% 4.3 mph SW6.9 kmh SW 8.0 mph12.9 kmh 30.09 in1019.0 mb - 0.00 in0.0 mm 0.00 in0.0 mm
01:00 PM 73.6°F23.1°C 65.2°F18.4°C 75% 4.5 mph SW7.2 kmh SW 7.0 mph11.3 kmh 30.10 in1019.3 mb - 0.00 in0.0 mm 0.00 in0.0 mm
12:50 PM 74.7°F23.7°C 65.4°F18.6°C 73% 4.1 mph SW6.6 kmh SW 5.0 mph8.0 kmh 30.10 in1019.3 mb - 0.00 in0.0 mm 0.00 in0.0 mm
12:40 PM 73.2°F22.9°C 65.6°F18.7°C 77% 4.8 mph SW7.7 kmh SW 6.0 mph9.7 kmh 30.11 in1019.6 mb - 0.00 in0.0 mm 0.00 in0.0 mm
12:30 PM 73.8°F23.2°C 66.2°F19.0°C 77% 5.0 mph SW8.0 kmh SW 7.0 mph11.3 kmh 30.11 in1019.6 mb - 0.00 in0.0 mm 0.00 in0.0 mm
12:20 PM 73.3°F22.9°C 66.0°F18.9°C 78% 7.1 mph SW11.4 kmh SW 10.0 mph16.1 kmh 30.12 in1020.0 mb - 0.00 in0.0 mm 0.00 in0.0 mm
12:10 PM 74.7°F23.7°C 66.3°F19.1°C 75% 5.8 mph SW9.3 kmh SW 6.0 mph9.7 kmh 30.12 in1020.0 mb - 0.00 in0.0 mm 0.00 in0.0 mm
12:00 PM 73.5°F23.1°C 65.5°F18.6°C 76% 7.3 mph SW11.7 kmh SW 8.0 mph12.9 kmh 30.12 in1020.0 mb - 0.00 in0.0 mm 0.00 in0.0 mm
11:50 AM 73.5°F23.1°C 65.5°F18.6°C 76% 4.5 mph SW7.2 kmh SW 6.0 mph9.7 kmh 30.12 in1020.0 mb - 0.00 in0.0 mm 0.00 in0.0 mm
11:40 AM 73.0°F22.8°C 65.3°F18.5°C 77% 5.4 mph SW8.7 kmh SW 7.0 mph11.3 kmh 30.12 in1020.0 mb - 0.00 in0.0 mm 0.00 in0.0 mm
11:30 AM 72.8°F22.7°C 65.2°F18.4°C 77% 3.4 mph SW5.5 kmh SW 9.0 mph14.5 kmh 30.13 in1020.3 mb - 0.00 in0.0 mm 0.00 in0.0 mm
11:20 AM 72.5°F22.5°C 65.6°F18.7°C 79% 3.9 mph SW6.3 kmh SW 6.0 mph9.7 kmh 30.13 in1020.3 mb - 0.00 in0.0 mm 0.00 in0.0 mm
11:10 AM 72.0°F22.2°C 65.1°F18.4°C 79% 4.5 mph SW7.2 kmh SW 5.0 mph8.0 kmh 30.13 in1020.3 mb - 0.00 in0.0 mm 0.00 in0.0 mm
11:00 AM 71.8°F22.1°C 64.9°F18.3°C 79% 4.0 mph SW6.4 kmh SW 6.0 mph9.7 kmh 30.12 in1020.0 mb - 0.00 in0.0 mm 0.00 in0.0 mm
10:50 AM 71.8°F22.1°C 65.3°F18.5°C 80% 5.7 mph SW9.2 kmh SW 7.0 mph11.3 kmh 30.13 in1020.3 mb - 0.00 in0.0 mm 0.00 in0.0 mm
10:40 AM 72.0°F22.2°C 65.5°F18.6°C 80% 6.0 mph SW9.7 kmh SW 9.0 mph14.5 kmh 30.13 in1020.3 mb - 0.00 in0.0 mm 0.00 in0.0 mm
10:30 AM 72.7°F22.6°C 65.4°F18.6°C 78% 6.9 mph SW11.1 kmh SW 9.0 mph14.5 kmh 30.13 in1020.3 mb - 0.00 in0.0 mm 0.00 in0.0 mm
10:20 AM 73.6°F23.1°C 66.7°F19.3°C 79% 5.1 mph SW8.2 kmh SW 9.0 mph14.5 kmh 30.12 in1020.0 mb - 0.00 in0.0 mm 0.00 in0.0 mm
10:10 AM 72.6°F22.6°C 65.7°F18.7°C 79% 5.6 mph SW9.0 kmh SW 9.0 mph14.5 kmh 30.12 in1020.0 mb - 0.00 in0.0 mm 0.00 in0.0 mm
10:00 AM 72.6°F22.6°C 65.7°F18.7°C 79% 4.6 mph SW7.4 kmh SW 7.0 mph11.3 kmh 30.12 in1020.0 mb - 0.00 in0.0 mm 0.00 in0.0 mm
09:50 AM 72.0°F22.2°C 64.8°F18.2°C 78% 5.7 mph SW9.2 kmh SW 9.0 mph14.5 kmh 30.12 in1020.0 mb - 0.00 in0.0 mm 0.00 in0.0 mm
09:40 AM 72.3°F22.4°C 65.7°F18.7°C 80% 5.5 mph SW8.9 kmh SW 7.0 mph11.3 kmh 30.12 in1020.0 mb - 0.00 in0.0 mm 0.00 in0.0 mm
09:30 AM 72.6°F22.6°C 65.4°F18.6°C 78% 5.6 mph SW9.0 kmh SW 6.0 mph9.7 kmh 30.12 in1020.0 mb - 0.00 in0.0 mm 0.00 in0.0 mm
09:20 AM 72.4°F22.4°C 65.5°F18.6°C 79% 5.9 mph SW9.5 kmh SW 8.0 mph12.9 kmh 30.12 in1020.0 mb - 0.00 in0.0 mm 0.00 in0.0 mm
09:10 AM 71.7°F22.1°C 65.6°F18.7°C 81% 4.6 mph SW7.4 kmh SW 6.0 mph9.7 kmh 30.11 in1019.6 mb - 0.00 in0.0 mm 0.00 in0.0 mm
09:00 AM 71.2°F21.8°C 65.4°F18.6°C 82% 3.4 mph SW5.5 kmh SW 4.0 mph6.4 kmh 30.11 in1019.6 mb - 0.00 in0.0 mm 0.00 in0.0 mm
08:50 AM 70.9°F21.6°C 65.2°F18.4°C 82% Calm Calm -- 30.10 in1019.3 mb - 0.00 in0.0 mm 0.00 in0.0 mm
08:40 AM 71.2°F21.8°C 65.1°F18.4°C 81% Calm Calm -- 30.10 in1019.3 mb - 0.00 in0.0 mm 0.00 in0.0 mm
08:30 AM 70.5°F21.4°C 64.8°F18.2°C 82% Calm Calm -- 30.10 in1019.3 mb - 0.00 in0.0 mm 0.00 in0.0 mm
08:20 AM 70.3°F21.3°C 64.8°F18.2°C 83% Calm Calm -- 30.10 in1019.3 mb - 0.00 in0.0 mm 0.00 in0.0 mm
08:10 AM 70.0°F21.1°C 65.0°F18.3°C 84% Calm Calm -- 30.10 in1019.3 mb - 0.00 in0.0 mm 0.00 in0.0 mm
08:00 AM 69.4°F20.8°C 64.1°F17.8°C 83% Calm Calm -- 30.09 in1019.0 mb - 0.00 in0.0 mm 0.00 in0.0 mm
07:50 AM 68.8°F20.4°C 63.5°F17.5°C 83% Calm Calm -- 30.09 in1019.0 mb - 0.00 in0.0 mm 0.00 in0.0 mm
07:40 AM 68.3°F20.2°C 62.6°F17.0°C 82% Calm Calm -- 30.09 in1019.0 mb - 0.00 in0.0 mm 0.00 in0.0 mm
07:30 AM 68.1°F20.1°C 61.7°F16.5°C 80% 1.0 mph SW1.6 kmh SW 2.0 mph3.2 kmh 30.09 in1019.0 mb - 0.00 in0.0 mm 0.00 in0.0 mm
07:20 AM 68.7°F20.4°C 61.5°F16.4°C 78% Calm Calm -- 30.09 in1019.0 mb - 0.00 in0.0 mm 0.00 in0.0 mm
07:10 AM 69.0°F20.6°C 61.1°F16.2°C 76% Calm Calm -- 30.09 in1019.0 mb - 0.00 in0.0 mm 0.00 in0.0 mm
07:00 AM 69.2°F20.7°C 57.8°F14.3°C 67% Calm Calm -- 30.09 in1019.0 mb - 0.00 in0.0 mm 0.00 in0.0 mm
06:50 AM 70.0°F21.1°C 57.7°F14.3°C 65% Calm Calm -- 30.09 in1019.0 mb - 0.00 in0.0 mm 0.00 in0.0 mm
06:40 AM 70.5°F21.4°C 54.5°F12.5°C 57% Calm Calm -- 30.08 in1018.6 mb - 0.00 in0.0 mm 0.00 in0.0 mm
06:30 AM 70.9°F21.6°C 54.4°F12.4°C 56% Calm Calm -- 30.07 in1018.3 mb - 0.00 in0.0 mm 0.00 in0.0 mm
06:20 AM 71.2°F21.8°C 54.7°F12.6°C 56% 1.2 mph SW1.9 kmh SW 3.0 mph4.8 kmh 30.07 in1018.3 mb - 0.00 in0.0 mm 0.00 in0.0 mm
06:10 AM 71.1°F21.7°C 55.1°F12.8°C 57% 0.5 mph SW0.8 kmh SW 2.0 mph3.2 kmh 30.07 in1018.3 mb - 0.00 in0.0 mm 0.00 in0.0 mm
06:00 AM 70.2°F21.2°C 54.2°F12.3°C 57% 2.8 mph SW4.5 kmh SW 4.0 mph6.4 kmh 30.07 in1018.3 mb - 0.00 in0.0 mm 0.00 in0.0 mm
05:50 AM 70.5°F21.4°C 56.8°F13.8°C 62% 3.9 mph SW6.3 kmh SW 6.0 mph9.7 kmh 30.07 in1018.3 mb - 0.00 in0.0 mm 0.00 in0.0 mm
05:40 AM 71.2°F21.8°C 53.2°F11.8°C 53% 0.5 mph SW0.8 kmh SW -- 30.06 in1017.9 mb - 0.00 in0.0 mm 0.00 in0.0 mm
05:30 AM 71.3°F21.8°C 53.8°F12.1°C 54% 3.2 mph SW5.1 kmh SW 4.0 mph6.4 kmh 30.06 in1017.9 mb - 0.00 in0.0 mm 0.00 in0.0 mm
05:20 AM 71.4°F21.9°C 53.9°F12.2°C 54% 0.5 mph SW0.8 kmh SW 2.0 mph3.2 kmh 30.06 in1017.9 mb - 0.00 in0.0 mm 0.00 in0.0 mm
05:10 AM 71.4°F21.9°C 52.9°F11.6°C 52% 3.4 mph SW5.5 kmh SW 4.0 mph6.4 kmh 30.06 in1017.9 mb - 0.00 in0.0 mm 0.00 in0.0 mm
05:00 AM 71.3°F21.8°C 53.3°F11.8°C 53% 2.9 mph SW4.7 kmh SW 4.0 mph6.4 kmh 30.06 in1017.9 mb - 0.00 in0.0 mm 0.00 in0.0 mm
04:50 AM 71.0°F21.7°C 53.0°F11.7°C 53% 2.6 mph SW4.2 kmh SW 3.0 mph4.8 kmh 30.06 in1017.9 mb - 0.00 in0.0 mm 0.00 in0.0 mm
04:40 AM 70.2°F21.2°C 53.3°F11.8°C 55% 3.2 mph SW5.1 kmh SW 4.0 mph6.4 kmh 30.06 in1017.9 mb - 0.00 in0.0 mm 0.00 in0.0 mm
04:30 AM 69.4°F20.8°C 54.4°F12.4°C 59% 3.6 mph SW5.8 kmh SW 4.0 mph6.4 kmh 30.06 in1017.9 mb - 0.00 in0.0 mm 0.00 in0.0 mm
04:20 AM 68.5°F20.3°C 55.0°F12.8°C 62% 2.2 mph SW3.5 kmh SW 3.0 mph4.8 kmh 30.06 in1017.9 mb - 0.00 in0.0 mm 0.00 in0.0 mm
04:10 AM 68.0°F20.0°C 54.9°F12.7°C 63% 2.5 mph SW4.0 kmh SW 3.0 mph4.8 kmh 30.07 in1018.3 mb - 0.00 in0.0 mm 0.00 in0.0 mm
04:00 AM 67.9°F19.9°C 56.9°F13.8°C 68% 0.4 mph SW0.6 kmh SW 2.0 mph3.2 kmh 30.07 in1018.3 mb - 0.00 in0.0 mm 0.00 in0.0 mm
03:50 AM 67.7°F19.8°C 57.2°F14.0°C 69% 2.6 mph SW4.2 kmh SW 4.0 mph6.4 kmh 30.07 in1018.3 mb - 0.00 in0.0 mm 0.00 in0.0 mm
03:40 AM 67.4°F19.7°C 56.5°F13.6°C 68% 2.2 mph SW3.5 kmh SW 3.0 mph4.8 kmh 30.08 in1018.6 mb - 0.00 in0.0 mm 0.00 in0.0 mm
03:30 AM 67.5°F19.7°C 57.4°F14.1°C 70% 3.1 mph SW5.0 kmh SW 4.0 mph6.4 kmh 30.08 in1018.6 mb - 0.00 in0.0 mm 0.00 in0.0 mm
03:20 AM 68.2°F20.1°C 60.0°F15.6°C 75% 0.5 mph SW0.8 kmh SW 2.0 mph3.2 kmh 30.09 in1019.0 mb - 0.00 in0.0 mm 0.00 in0.0 mm
03:10 AM 68.6°F20.3°C 61.5°F16.4°C 78% 0.2 mph SW0.3 kmh SW 1.0 mph1.6 kmh 30.09 in1019.0 mb - 0.00 in0.0 mm 0.00 in0.0 mm
03:00 AM 68.6°F20.3°C 60.4°F15.8°C 75% 2.6 mph SW4.2 kmh SW 7.0 mph11.3 kmh 30.09 in1019.0 mb - 0.00 in0.0 mm 0.00 in0.0 mm
02:50 AM 68.4°F20.2°C 59.0°F15.0°C 72% 4.5 mph SW7.2 kmh SW 7.0 mph11.3 kmh 30.09 in1019.0 mb - 0.00 in0.0 mm 0.00 in0.0 mm
02:40 AM 68.2°F20.1°C 58.0°F14.4°C 70% 1.1 mph SW1.8 kmh SW 2.0 mph3.2 kmh 30.10 in1019.3 mb - 0.00 in0.0 mm 0.00 in0.0 mm
02:30 AM 68.2°F20.1°C 57.6°F14.2°C 69% 0.7 mph SW1.1 kmh SW 3.0 mph4.8 kmh 30.10 in1019.3 mb - 0.00 in0.0 mm 0.00 in0.0 mm
02:20 AM 68.5°F20.3°C 57.5°F14.2°C 68% Calm Calm 1.0 mph1.6 kmh 30.10 in1019.3 mb - 0.00 in0.0 mm 0.00 in0.0 mm
02:10 AM 68.9°F20.5°C 58.3°F14.6°C 69% 0.5 mph SW0.8 kmh SW 3.0 mph4.8 kmh 30.11 in1019.6 mb - 0.00 in0.0 mm 0.00 in0.0 mm
02:00 AM 69.3°F20.7°C 59.1°F15.1°C 70% 2.2 mph SW3.5 kmh SW 3.0 mph4.8 kmh 30.11 in1019.6 mb - 0.00 in0.0 mm 0.00 in0.0 mm
01:50 AM 69.3°F20.7°C 59.1°F15.1°C 70% Calm Calm -- 30.11 in1019.6 mb - 0.00 in0.0 mm 0.00 in0.0 mm
01:40 AM 69.5°F20.8°C 58.9°F14.9°C 69% 0.6 mph SW1.0 kmh SW -- 30.11 in1019.6 mb - 0.00 in0.0 mm 0.00 in0.0 mm
01:30 AM 70.0°F21.1°C 59.0°F15.0°C 68% 2.6 mph SW4.2 kmh SW 4.0 mph6.4 kmh 30.12 in1020.0 mb - 0.00 in0.0 mm 0.00 in0.0 mm
01:00 AM 70.2°F21.2°C 59.1°F15.1°C 68% 3.2 mph SW5.1 kmh SW 4.0 mph6.4 kmh 30.12 in1020.0 mb - 0.00 in0.0 mm 0.00 in0.0 mm
12:50 AM 70.4°F21.3°C 59.3°F15.2°C 68% 3.6 mph SW5.8 kmh SW 5.0 mph8.0 kmh 30.12 in1020.0 mb - 0.00 in0.0 mm 0.00 in0.0 mm
12:40 AM 70.4°F21.3°C 59.7°F15.4°C 69% 4.0 mph SW6.4 kmh SW 5.0 mph8.0 kmh 30.12 in1020.0 mb - 0.00 in0.0 mm 0.00 in0.0 mm
12:30 AM 70.6°F21.4°C 59.5°F15.3°C 68% 4.6 mph SW7.4 kmh SW 6.0 mph9.7 kmh 30.12 in1020.0 mb - 0.00 in0.0 mm 0.00 in0.0 mm
12:20 AM 71.2°F21.8°C 60.1°F15.6°C 68% 3.6 mph SW5.8 kmh SW 5.0 mph8.0 kmh 30.13 in1020.3 mb - 0.00 in0.0 mm 0.00 in0.0 mm
12:10 AM 71.5°F21.9°C 60.0°F15.6°C 67% 2.3 mph SW3.7 kmh SW 3.0 mph4.8 kmh 30.13 in1020.3 mb - 0.00 in0.0 mm 0.00 in0.0 mm
12:00 AM 71.8°F22.1°C 59.4°F15.2°C 65% 2.6 mph SW4.2 kmh SW 4.0 mph6.4 kmh 30.13 in1020.3 mb - 0.00 in0.0 mm 0.00 in0.0 mm